Time;durP1;ratioP1;P1;durP2;ratioP2;P2;SDS_P1;SDS_P2;PMS_P1;PMS_P2;Temp;Humidity;BMP_temperature;BMP_pressure;BME280_temperature;BME280_humidity;BME280_pressure;Samples;Min_cycle;Max_cycle;Signal;HPM_P1;HPM_P2
2021/09/11 00:01:44;;;;;;;19.10;11.75;;;;;;;20.60;84.89;96436.44;5057938;28;20905;-72
2021/09/11 00:04:11;;;;;;;19.00;12.88;;;;;;;20.64;84.48;96434.94;5057488;28;20200;-72
2021/09/11 00:06:39;;;;;;;20.10;14.65;;;;;;;21.00;83.81;96427.44;5057185;28;20217;-72
2021/09/11 00:09:05;;;;;;;19.20;12.13;;;;;;;20.84;84.19;96425.50;5057192;28;20204;-72
2021/09/11 00:11:32;;;;;;;22.83;12.43;;;;;;;20.72;83.91;96431.88;5058032;28;20209;-71
2021/09/11 00:13:58;;;;;;;20.38;12.77;;;;;;;20.83;84.06;96425.75;5056772;28;20443;-72
2021/09/11 00:16:25;;;;;;;19.40;12.80;;;;;;;20.48;85.54;96422.22;5056468;28;20219;-72
2021/09/11 00:18:51;;;;;;;18.60;12.52;;;;;;;20.65;84.78;96426.66;5057412;28;20204;-71
2021/09/11 00:21:18;;;;;;;18.38;13.52;;;;;;;20.71;84.51;96427.56;5057237;28;20224;-72
2021/09/11 00:23:46;;;;;;;19.17;13.25;;;;;;;20.83;84.87;96423.06;5057518;28;20212;-72
2021/09/11 00:26:13;;;;;;;18.90;13.80;;;;;;;20.68;84.84;96425.38;5056991;28;20231;-72
2021/09/11 00:28:39;;;;;;;21.50;13.80;;;;;;;20.47;85.60;96428.66;5057803;28;20211;-72
2021/09/11 00:31:08;;;;;;;21.10;14.23;;;;;;;20.61;85.71;96416.63;5057082;28;20196;-72
2021/09/11 00:33:34;;;;;;;21.27;14.43;;;;;;;20.67;85.02;96423.72;5058837;28;20228;-72
2021/09/11 00:36:01;;;;;;;19.42;13.75;;;;;;;20.72;84.71;96427.38;5057827;28;20215;-72
2021/09/11 00:38:27;;;;;;;20.75;13.57;;;;;;;20.62;85.79;96426.28;5057789;28;20262;-72
2021/09/11 00:40:55;;;;;;;19.65;13.88;;;;;;;20.97;84.63;96426.03;5056865;28;20205;-72
2021/09/11 00:43:22;;;;;;;19.02;13.43;;;;;;;20.71;85.57;96420.38;5057856;28;20209;-72
2021/09/11 00:45:49;;;;;;;21.90;14.13;;;;;;;20.60;86.15;96428.41;5056241;28;20228;-72
2021/09/11 00:48:16;;;;;;;22.55;14.45;;;;;;;20.45;86.94;96426.19;5057000;28;21282;-72
2021/09/11 00:50:42;;;;;;;21.25;14.45;;;;;;;20.33;88.13;96436.09;5057379;28;20209;-72
2021/09/11 00:53:09;;;;;;;24.58;15.38;;;;;;;20.43;88.46;96427.47;5057345;28;20236;-71
2021/09/11 00:55:37;;;;;;;22.15;15.25;;;;;;;20.27;90.10;96433.53;5055693;28;20303;-71
2021/09/11 00:58:05;;;;;;;22.63;15.35;;;;;;;20.46;89.50;96427.03;5057411;28;20216;-72
2021/09/11 01:00:32;;;;;;;25.52;16.63;;;;;;;20.30;89.93;96430.38;5057002;28;20201;-72
2021/09/11 01:02:58;;;;;;;22.13;15.90;;;;;;;20.52;89.23;96420.72;5056971;28;20201;-72
2021/09/11 01:05:25;;;;;;;25.23;16.42;;;;;;;20.56;89.62;96429.94;5056063;28;20200;-72
2021/09/11 01:07:52;;;;;;;23.65;16.13;;;;;;;20.04;92.82;96436.16;5057194;28;20231;-72
2021/09/11 01:10:18;;;;;;;28.02;17.92;;;;;;;20.48;91.54;96431.09;5057585;28;20200;-72
2021/09/11 01:12:47;;;;;;;27.17;18.27;;;;;;;20.47;92.45;96429.47;5060575;28;20215;-72
2021/09/11 01:15:16;;;;;;;29.90;18.70;;;;;;;20.60;93.31;96425.72;5060020;28;20200;-72
2021/09/11 01:17:45;;;;;;;30.65;19.48;;;;;;;20.40;94.62;96434.13;5060510;28;20339;-72
2021/09/11 01:20:12;;;;;;;27.08;18.77;;;;;;;20.61;94.19;96430.84;5059820;28;20208;-72
2021/09/11 01:22:39;;;;;;;30.48;19.73;;;;;;;20.24;95.74;96431.31;5059920;28;20572;-72
2021/09/11 01:25:09;;;;;;;28.52;19.10;;;;;;;20.55;95.33;96428.28;5060237;28;20196;-72
2021/09/11 01:27:36;;;;;;;31.27;20.58;;;;;;;20.42;95.97;96431.22;5058971;28;20803;-72
2021/09/11 01:30:06;;;;;;;31.20;20.08;;;;;;;20.43;96.27;96430.97;5060884;28;20214;-72
2021/09/11 01:32:33;;;;;;;33.70;19.65;;;;;;;20.41;96.30;96426.91;5059421;28;20208;-72
2021/09/11 01:35:00;;;;;;;33.80;21.10;;;;;;;20.07;98.50;96429.53;5059798;28;20714;-72
2021/09/11 01:37:27;;;;;;;31.88;20.80;;;;;;;20.34;97.05;96437.72;5059009;28;20225;-72
2021/09/11 01:39:53;;;;;;;33.67;21.55;;;;;;;20.19;97.78;96447.25;5060239;28;20568;-71
2021/09/11 01:42:23;;;;;;;34.67;21.67;;;;;;;20.34;97.86;96436.88;5059193;28;20200;-71
2021/09/11 01:44:52;;;;;;;37.28;21.67;;;;;;;20.09;98.87;96438.97;5059845;28;20197;-71
2021/09/11 01:47:18;;;;;;;39.33;22.63;;;;;;;20.13;98.98;96432.13;5059151;28;20217;-71
2021/09/11 01:49:45;;;;;;;36.63;23.35;;;;;;;20.17;98.41;96440.50;5059859;28;20204;-71
2021/09/11 01:52:13;;;;;;;37.15;22.35;;;;;;;20.22;98.48;96438.75;5058617;28;20204;-72
2021/09/11 01:54:41;;;;;;;35.10;23.20;;;;;;;20.25;97.87;96436.44;5059319;28;20240;-71
2021/09/11 01:57:09;;;;;;;38.22;23.80;;;;;;;20.16;98.11;96437.00;5059046;28;20224;-71
2021/09/11 01:59:38;;;;;;;35.30;22.88;;;;;;;20.13;97.95;96434.00;5059413;28;20227;-71
2021/09/11 02:02:05;;;;;;;36.60;21.13;;;;;;;20.23;97.73;96427.00;5059166;28;20192;-72
2021/09/11 02:04:32;;;;;;;36.33;21.83;;;;;;;20.04;97.61;96446.88;5056823;28;20200;-71
2021/09/11 02:06:58;;;;;;;35.13;22.00;;;;;;;19.87;98.44;96443.22;5058067;28;20216;-71
2021/09/11 02:09:25;;;;;;;34.38;22.92;;;;;;;20.07;98.42;96438.38;5059179;28;20196;-71
2021/09/11 02:11:52;;;;;;;34.78;20.83;;;;;;;20.15;97.85;96440.75;5059155;28;20228;-71
2021/09/11 02:14:18;;;;;;;38.55;22.95;;;;;;;20.01;98.00;96439.31;5058791;28;20216;-71
2021/09/11 02:16:46;;;;;;;38.67;23.27;;;;;;;20.27;97.66;96442.34;5058080;28;20235;-71
2021/09/11 02:19:13;;;;;;;41.90;22.20;;;;;;;20.11;97.55;96438.75;5059277;28;20215;-71
2021/09/11 02:21:39;;;;;;;34.17;20.88;;;;;;;20.14;97.42;96435.59;5058887;28;20235;-71
2021/09/11 02:24:06;;;;;;;37.60;21.73;;;;;;;20.15;97.32;96434.56;5058389;28;20695;-71
2021/09/11 02:26:32;;;;;;;33.97;21.77;;;;;;;20.10;97.14;96442.44;5059359;28;20547;-71
2021/09/11 02:28:59;;;;;;;33.83;20.75;;;;;;;20.00;97.49;96444.91;5058884;28;20204;-71
2021/09/11 02:31:25;;;;;;;31.45;21.05;;;;;;;19.98;97.03;96444.31;5058833;28;20732;-71
2021/09/11 02:33:53;;;;;;;30.75;19.67;;;;;;;20.03;97.42;96439.88;5058349;28;20255;-71
2021/09/11 02:36:20;;;;;;;29.52;20.33;;;;;;;20.04;97.11;96443.41;5058339;28;20211;-72
2021/09/11 02:38:47;;;;;;;30.67;19.70;;;;;;;20.11;97.01;96438.75;5058138;28;20208;-72
2021/09/11 02:41:13;;;;;;;28.65;18.50;;;;;;;20.02;96.73;96440.13;5059128;28;20204;-71
2021/09/11 02:43:40;;;;;;;30.92;18.88;;;;;;;19.82;96.97;96445.75;5058767;28;20212;-71
2021/09/11 02:46:06;;;;;;;28.52;19.00;;;;;;;19.86;96.60;96443.44;5057716;28;20205;-71
2021/09/11 02:48:33;;;;;;;27.15;16.80;;;;;;;19.72;96.30;96448.16;5058640;28;20270;-71
2021/09/11 02:51:01;;;;;;;27.40;17.05;;;;;;;19.98;96.78;96442.44;5059015;28;20211;-72
2021/09/11 02:53:27;;;;;;;28.75;17.85;;;;;;;19.79;96.05;96448.91;5057669;28;20319;-71
2021/09/11 02:55:54;;;;;;;25.13;17.45;;;;;;;19.95;95.25;96440.22;5057433;28;20219;-71
2021/09/11 02:58:22;;;;;;;25.48;16.33;;;;;;;19.78;95.78;96449.09;5059358;28;20712;-71
2021/09/11 03:00:49;;;;;;;24.27;16.13;;;;;;;19.61;96.31;96448.13;5058503;28;20196;-71
2021/09/11 03:03:15;;;;;;;24.30;16.05;;;;;;;19.53;95.76;96439.63;5058147;28;20201;-71
2021/09/11 03:05:42;;;;;;;22.73;15.85;;;;;;;19.66;96.03;96441.03;5057497;28;20212;-71
2021/09/11 03:08:10;;;;;;;23.25;15.07;;;;;;;19.83;95.45;96439.38;5058407;28;20231;-72
2021/09/11 03:10:36;;;;;;;22.10;14.63;;;;;;;19.72;95.26;96442.00;5058118;28;20560;-71
2021/09/11 03:13:03;;;;;;;21.10;14.32;;;;;;;19.64;95.20;96440.47;5058242;28;20200;-71
2021/09/11 03:15:29;;;;;;;20.92;14.55;;;;;;;19.59;95.13;96445.69;5057575;28;20228;-72
2021/09/11 03:17:56;;;;;;;22.42;14.40;;;;;;;19.47;95.80;96440.53;5057772;28;20220;-72
2021/09/11 03:20:22;;;;;;;20.75;14.02;;;;;;;19.33;96.78;96439.88;5057921;28;20204;-72
2021/09/11 03:22:49;;;;;;;20.88;14.27;;;;;;;19.14;96.77;96430.28;5058919;28;20769;-72
2021/09/11 03:25:16;;;;;;;21.73;14.50;;;;;;;19.51;95.67;96431.00;5057142;28;20579;-71
2021/09/11 03:27:43;;;;;;;22.92;13.80;;;;;;;19.39;95.55;96438.16;5057697;28;20239;-72
2021/09/11 03:30:10;;;;;;;19.75;13.18;;;;;;;19.40;95.64;96434.44;5057990;28;20197;-71
2021/09/11 03:32:36;;;;;;;20.27;13.05;;;;;;;19.41;95.63;96441.41;5057802;28;20201;-72
2021/09/11 03:35:03;;;;;;;21.90;13.32;;;;;;;19.55;94.83;96442.88;5056735;28;20739;-72
2021/09/11 03:37:29;;;;;;;18.48;13.00;;;;;;;19.35;94.78;96439.66;5057363;28;20231;-71
2021/09/11 03:39:56;;;;;;;20.52;13.07;;;;;;;19.48;94.56;96436.81;5057718;28;20699;-72
2021/09/11 03:42:24;;;;;;;20.73;13.60;;;;;;;19.55;94.88;96438.31;5057594;28;20200;-72
2021/09/11 03:44:50;;;;;;;19.77;13.32;;;;;;;19.37;95.34;96445.59;5057191;28;20197;-72
2021/09/11 03:47:17;;;;;;;18.73;13.02;;;;;;;19.36;94.99;96443.94;5056780;28;20646;-71
2021/09/11 03:49:43;;;;;;;21.67;13.02;;;;;;;19.27;95.75;96440.78;5057810;28;20215;-72
2021/09/11 03:52:10;;;;;;;21.48;13.65;;;;;;;19.30;95.98;96444.88;5057322;28;20208;-71
2021/09/11 03:54:36;;;;;;;19.80;12.88;;;;;;;19.49;94.90;96435.75;5057513;28;20572;-72
2021/09/11 03:57:03;;;;;;;19.42;13.13;;;;;;;19.36;95.84;96438.59;5056902;28;20224;-72
2021/09/11 03:59:30;;;;;;;19.52;12.80;;;;;;;19.43;95.98;96439.34;5057559;28;20211;-72
2021/09/11 04:01:57;;;;;;;18.92;12.68;;;;;;;19.26;95.18;96433.00;5057608;28;20240;-71
2021/09/11 04:04:23;;;;;;;18.13;12.00;;;;;;;19.44;94.55;96440.97;5058263;28;20209;-72
2021/09/11 04:06:50;;;;;;;18.48;12.77;;;;;;;19.51;94.60;96433.69;5055866;28;20224;-71
2021/09/11 04:09:16;;;;;;;23.58;12.65;;;;;;;19.46;94.78;96433.53;5057610;28;20262;-71
2021/09/11 04:11:43;;;;;;;19.70;12.82;;;;;;;19.38;95.23;96447.22;5058228;28;20204;-72
2021/09/11 04:14:09;;;;;;;18.95;13.23;;;;;;;19.38;94.97;96436.53;5057372;28;20277;-72
2021/09/11 04:16:37;;;;;;;18.10;12.40;;;;;;;19.39;95.80;96438.97;5054960;28;20254;-72
2021/09/11 04:19:03;;;;;;;20.35;12.93;;;;;;;19.31;95.28;96438.47;5056768;28;20196;-72
2021/09/11 04:21:30;;;;;;;19.40;12.65;;;;;;;19.36;95.13;96447.47;5056440;28;20576;-71
2021/09/11 04:23:57;;;;;;;20.38;13.63;;;;;;;19.26;95.80;96436.47;5056194;28;20481;-71
2021/09/11 04:26:23;;;;;;;19.42;14.00;;;;;;;19.39;95.13;96447.00;5055900;28;20200;-71
2021/09/11 04:28:49;;;;;;;20.30;12.48;;;;;;;19.32;95.36;96448.13;5056181;28;20598;-71
2021/09/11 04:31:16;;;;;;;19.90;13.48;;;;;;;19.34;95.26;96446.84;5057103;28;20199;-71
2021/09/11 04:33:44;;;;;;;21.30;14.30;;;;;;;19.43;95.49;96450.03;5057261;28;20208;-71
2021/09/11 04:36:10;;;;;;;19.98;14.07;;;;;;;19.32;95.40;96450.78;5056027;28;20200;-72
2021/09/11 04:38:37;;;;;;;24.52;15.65;;;;;;;19.11;95.93;96446.72;5056956;28;20216;-72
2021/09/11 04:41:04;;;;;;;21.35;14.45;;;;;;;19.28;95.61;96452.28;5057184;28;20200;-71
2021/09/11 04:43:30;;;;;;;20.85;13.93;;;;;;;19.29;95.71;96448.59;5057667;28;20229;-71
2021/09/11 04:45:57;;;;;;;21.13;15.30;;;;;;;19.31;95.64;96449.16;5057697;28;20203;-71
2021/09/11 04:48:23;;;;;;;22.35;14.20;;;;;;;19.31;95.77;96451.81;5060425;28;20224;-72
2021/09/11 04:50:51;;;;;;;23.90;14.35;;;;;;;19.42;95.64;96451.06;5061564;28;20211;-71
2021/09/11 04:53:18;;;;;;;21.05;14.07;;;;;;;19.25;95.21;96450.88;5060624;28;20265;-72
2021/09/11 04:55:44;;;;;;;22.30;13.82;;;;;;;19.19;95.99;96456.31;5060079;28;20704;-71
2021/09/11 04:58:12;;;;;;;19.92;13.55;;;;;;;19.38;95.41;96457.91;5060863;28;20231;-71
2021/09/11 05:00:38;;;;;;;21.88;13.50;;;;;;;19.36;95.66;96454.63;5061371;28;20422;-72
2021/09/11 05:03:04;;;;;;;20.48;13.52;;;;;;;19.30;95.66;96450.22;5060110;28;20201;-72
2021/09/11 05:05:31;;;;;;;21.33;13.30;;;;;;;19.34;95.79;96451.41;5059715;28;21003;-72
2021/09/11 05:07:59;;;;;;;19.60;13.90;;;;;;;19.59;95.08;96456.38;5060351;28;20221;-72
2021/09/11 05:10:26;;;;;;;18.83;13.50;;;;;;;19.31;95.52;96459.84;5060025;28;20200;-71
2021/09/11 05:12:53;;;;;;;25.15;13.30;;;;;;;19.43;95.26;96455.38;5060317;28;20204;-71
2021/09/11 05:15:20;;;;;;;21.27;13.02;;;;;;;19.59;94.64;96464.41;5059665;28;20220;-72
2021/09/11 05:17:46;;;;;;;21.10;13.57;;;;;;;19.39;95.40;96464.91;5059763;28;20216;-72
2021/09/11 05:20:14;;;;;;;21.58;13.45;;;;;;;19.58;94.80;96465.44;5059883;28;20200;-72
2021/09/11 05:22:41;;;;;;;23.25;13.90;;;;;;;19.39;95.23;96459.56;5061034;28;20684;-72
2021/09/11 05:25:11;;;;;;;21.30;13.00;;;;;;;19.62;94.57;96463.94;5060249;28;20197;-72
2021/09/11 05:27:39;;;;;;;20.05;13.50;;;;;;;19.53;94.53;96463.69;5059445;28;20327;-72
2021/09/11 05:30:07;;;;;;;18.65;12.15;;;;;;;19.57;93.97;96471.81;5059979;28;20629;-72
2021/09/11 05:32:33;;;;;;;19.80;12.35;;;;;;;19.52;93.29;96467.38;5059075;28;20258;-72
2021/09/11 05:34:59;;;;;;;20.35;12.30;;;;;;;19.55;93.63;96464.25;5059460;28;20212;-72
2021/09/11 05:37:26;;;;;;;17.77;12.38;;;;;;;19.46;93.51;96466.41;5059507;28;20246;-72
2021/09/11 05:39:52;;;;;;;17.50;12.27;;;;;;;19.40;94.27;96466.50;5058962;28;20212;-74
2021/09/11 05:42:20;;;;;;;22.15;13.52;;;;;;;19.76;93.66;96473.41;5060221;28;20654;-72
2021/09/11 05:44:47;;;;;;;19.73;12.80;;;;;;;19.63;93.64;96475.47;5060071;28;20242;-72
2021/09/11 05:47:13;;;;;;;19.33;13.32;;;;;;;19.59;93.75;96466.25;5058997;28;20221;-72
2021/09/11 05:49:39;;;;;;;19.02;13.68;;;;;;;19.71;94.63;96475.13;5060901;28;20574;-72
2021/09/11 05:52:07;;;;;;;19.30;13.23;;;;;;;19.94;94.31;96476.03;5060526;28;20259;-72
2021/09/11 05:54:33;;;;;;;19.02;12.90;;;;;;;19.79;93.80;96475.63;5060502;28;20773;-72
2021/09/11 05:56:59;;;;;;;21.17;12.90;;;;;;;19.69;93.99;96477.19;5058993;28;20720;-72
2021/09/11 05:59:27;;;;;;;18.17;12.43;;;;;;;19.84;94.64;96472.25;5060212;28;20211;-72
2021/09/11 06:01:54;;;;;;;20.33;13.07;;;;;;;19.68;94.18;96473.72;5060252;28;20211;-72
2021/09/11 06:04:21;;;;;;;20.98;13.25;;;;;;;19.70;93.43;96479.69;5060382;28;20287;-72
2021/09/11 06:06:47;;;;;;;18.52;12.98;;;;;;;19.70;93.85;96471.66;5060023;28;20230;-72
2021/09/11 06:09:14;;;;;;;21.02;12.90;;;;;;;19.76;93.77;96478.75;5061072;28;20577;-71
2021/09/11 06:11:40;;;;;;;20.25;11.90;;;;;;;19.66;92.79;96480.34;5061119;28;20921;-71
2021/09/11 06:14:06;;;;;;;20.90;13.60;;;;;;;19.87;92.08;96486.00;5060873;28;20201;-72
2021/09/11 06:16:34;;;;;;;22.52;13.48;;;;;;;20.14;92.68;96476.56;5060462;28;20282;-72
2021/09/11 06:19:01;;;;;;;20.27;13.02;;;;;;;20.05;92.66;96483.28;5060063;28;20196;-72
2021/09/11 06:21:27;;;;;;;19.25;13.15;;;;;;;20.03;92.13;96482.69;5060811;28;20212;-72
2021/09/11 06:23:54;;;;;;;19.08;12.77;;;;;;;20.15;91.21;96482.72;5060192;28;20200;-72
2021/09/11 06:26:20;;;;;;;18.52;13.05;;;;;;;20.23;91.38;96488.56;5058971;28;20200;-72
2021/09/11 06:28:46;;;;;;;22.40;12.48;;;;;;;20.40;91.11;96489.50;5060058;28;20207;-72
2021/09/11 06:31:13;;;;;;;18.42;12.25;;;;;;;20.41;89.94;96483.13;5059516;28;20204;-71
2021/09/11 06:33:41;;;;;;;17.67;12.80;;;;;;;20.53;90.36;96489.28;5059360;28;21130;-71
2021/09/11 06:36:11;;;;;;;17.25;11.63;;;;;;;20.46;90.31;96489.41;5058949;28;20574;-71
2021/09/11 06:38:37;;;;;;;19.55;12.63;;;;;;;20.62;89.76;96491.41;5060012;28;20209;-71
2021/09/11 06:41:04;;;;;;;17.20;11.38;;;;;;;20.34;89.28;96498.47;5059504;28;20227;-71
2021/09/11 06:43:30;;;;;;;19.02;12.65;;;;;;;20.46;90.31;96491.28;5058969;28;20208;-71
2021/09/11 06:45:57;;;;;;;15.98;11.80;;;;;;;20.53;89.55;96491.97;5058606;28;20200;-71
2021/09/11 06:48:23;;;;;;;16.95;11.95;;;;;;;20.36;90.14;96489.16;5059903;28;20220;-72
2021/09/11 06:50:51;;;;;;;18.48;12.32;;;;;;;20.58;90.87;96494.75;5059361;28;20208;-71
2021/09/11 06:53:17;;;;;;;18.83;12.57;;;;;;;20.34;90.60;96496.63;5060600;28;20200;-71
2021/09/11 06:55:44;;;;;;;20.58;12.77;;;;;;;20.40;90.62;96492.19;5059065;28;20274;-72
2021/09/11 06:58:10;;;;;;;16.35;11.65;;;;;;;20.08;91.03;96492.72;5057826;28;20228;-72
2021/09/11 07:00:37;;;;;;;16.63;11.57;;;;;;;20.08;91.42;96498.88;5057416;28;20204;-72
2021/09/11 07:03:03;;;;;;;17.15;11.77;;;;;;;20.12;90.42;96493.88;5058915;28;20197;-72
2021/09/11 07:05:30;;;;;;;19.55;12.27;;;;;;;20.07;91.84;96491.88;5057102;28;20200;-72
2021/09/11 07:07:57;;;;;;;18.17;12.35;;;;;;;20.35;91.17;96492.06;5057656;28;20220;-72
2021/09/11 07:10:24;;;;;;;22.80;12.98;;;;;;;20.42;90.60;96493.59;5058162;28;20212;-74
2021/09/11 07:12:51;;;;;;;22.73;13.23;;;;;;;19.94;90.84;96496.63;5057607;28;20672;-74
2021/09/11 07:15:17;;;;;;;18.35;13.05;;;;;;;19.86;91.53;96495.06;5057208;28;20246;-71
2021/09/11 07:17:44;;;;;;;19.08;13.10;;;;;;;19.89;92.10;96505.31;5057883;28;20225;-71
2021/09/11 07:20:11;;;;;;;20.30;13.10;;;;;;;20.18;91.45;96499.13;5057964;28;20235;-72
2021/09/11 07:22:37;;;;;;;20.58;12.40;;;;;;;20.41;90.76;96497.31;5057131;28;20226;-72
2021/09/11 07:25:10;;;;;;;19.05;12.18;;;;;;;20.65;89.96;96501.63;5058013;28;20561;-71
2021/09/11 07:27:37;;;;;;;20.00;12.55;;;;;;;20.54;89.59;96504.31;5056810;28;20883;-72
2021/09/11 07:30:04;;;;;;;18.30;12.18;;;;;;;20.67;88.73;96501.41;5056933;28;20600;-71
2021/09/11 07:32:31;;;;;;;20.65;12.38;;;;;;;20.74;88.44;96504.81;5056586;28;20211;-71
2021/09/11 07:34:57;;;;;;;17.30;11.90;;;;;;;20.89;87.19;96501.44;5057357;28;20609;-72
2021/09/11 07:37:24;;;;;;;20.42;11.98;;;;;;;21.00;86.93;96497.09;5055919;28;20225;-71
2021/09/11 07:39:50;;;;;;;20.10;12.60;;;;;;;20.99;86.58;96508.88;5056897;28;20538;-72
2021/09/11 07:42:19;;;;;;;16.52;11.55;;;;;;;21.23;86.23;96508.63;5056764;28;20201;-72
2021/09/11 07:44:45;;;;;;;17.40;11.38;;;;;;;21.00;85.91;96500.63;5057028;28;20211;-71
2021/09/11 07:47:12;;;;;;;18.20;11.30;;;;;;;20.87;87.42;96503.53;5055542;28;20238;-71
2021/09/11 07:49:38;;;;;;;20.58;11.25;;;;;;;21.20;86.67;96509.06;5057058;28;20209;-71
2021/09/11 07:52:06;;;;;;;21.52;11.60;;;;;;;20.61;87.90;96505.84;5056597;28;20197;-72
2021/09/11 07:54:32;;;;;;;17.48;11.55;;;;;;;20.80;86.82;96514.59;5056398;28;20208;-71
2021/09/11 07:56:59;;;;;;;15.85;11.02;;;;;;;20.65;87.71;96508.88;5055330;28;20755;-71
2021/09/11 07:59:27;;;;;;;19.50;11.07;;;;;;;20.90;87.93;96513.78;5057051;28;20262;-71
2021/09/11 08:01:53;;;;;;;17.90;11.45;;;;;;;20.94;87.31;96514.13;5055733;28;20204;-72
2021/09/11 08:04:20;;;;;;;18.02;12.02;;;;;;;21.23;86.93;96508.63;5056331;28;20224;-71
2021/09/11 08:06:46;;;;;;;16.00;10.82;;;;;;;21.09;86.30;96517.97;5056128;28;20219;-71
2021/09/11 08:09:13;;;;;;;18.48;11.25;;;;;;;21.20;86.71;96516.31;5057016;28;20200;-71
2021/09/11 08:11:39;;;;;;;17.35;11.18;;;;;;;21.24;86.42;96518.28;5056540;28;20212;-71
2021/09/11 08:14:06;;;;;;;15.05;10.73;;;;;;;21.18;86.54;96513.88;5056215;28;20592;-71
2021/09/11 08:16:34;;;;;;;16.02;10.82;;;;;;;20.95;86.39;96519.25;5054697;28;20228;-71
2021/09/11 08:19:01;;;;;;;18.58;10.98;;;;;;;21.37;85.56;96520.69;5056563;28;20207;-71
2021/09/11 08:21:27;;;;;;;17.48;11.20;;;;;;;21.51;85.80;96519.41;5056064;28;20200;-71
2021/09/11 08:23:54;;;;;;;16.17;10.10;;;;;;;21.69;84.44;96527.28;5056257;28;20200;-71
2021/09/11 08:26:20;;;;;;;16.38;10.32;;;;;;;21.60;84.73;96528.72;5055519;28;20661;-71
2021/09/11 08:28:48;;;;;;;13.35;8.60;;;;;;;21.33;83.36;96529.47;5056028;28;20205;-71
2021/09/11 08:31:15;;;;;;;16.10;9.95;;;;;;;21.50;83.54;96518.59;5056070;28;20301;-71
2021/09/11 08:33:43;;;;;;;15.90;10.02;;;;;;;21.05;86.40;96530.22;5056441;28;20204;-71
2021/09/11 08:36:09;;;;;;;15.45;9.77;;;;;;;21.23;84.69;96527.38;5055526;28;20615;-71
2021/09/11 08:38:36;;;;;;;12.85;9.23;;;;;;;21.32;84.86;96525.97;5055602;28;20224;-72
2021/09/11 08:41:06;;;;;;;14.45;9.13;;;;;;;21.68;84.97;96526.47;5056328;28;20554;-71
2021/09/11 08:43:33;;;;;;;12.90;9.15;;;;;;;21.62;83.49;96529.28;5055564;28;20209;-71
2021/09/11 08:45:59;;;;;;;13.35;9.55;;;;;;;21.78;84.25;96534.72;5055196;28;20204;-72
2021/09/11 08:48:26;;;;;;;15.95;9.60;;;;;;;21.56;84.00;96522.19;5055714;28;20282;-71
2021/09/11 08:50:54;;;;;;;15.75;9.15;;;;;;;21.74;83.22;96530.06;5055890;28;20204;-71
2021/09/11 08:53:21;;;;;;;12.88;8.68;;;;;;;21.57;83.17;96530.00;5056150;28;20207;-71
2021/09/11 08:55:47;;;;;;;13.15;8.90;;;;;;;21.72;82.73;96529.50;5054979;28;20636;-72
2021/09/11 08:58:18;;;;;;;13.73;8.45;;;;;;;21.42;82.58;96525.34;5056518;28;20247;-72
2021/09/11 09:00:46;;;;;;;13.85;8.80;;;;;;;21.40;84.10;96525.59;5056838;28;20227;-71
2021/09/11 09:03:31;;;;;;;12.40;8.50;;;;;;;21.82;81.84;96527.03;5056949;28;20201;-71
2021/09/11 09:06:17;;;;;;;11.90;8.70;;;;;;;21.86;82.72;96523.59;5056159;28;20652;-71
2021/09/11 09:08:45;;;;;;;13.38;8.25;;;;;;;21.48;83.80;96530.59;5056689;28;20743;-72
2021/09/11 09:11:17;;;;;;;14.63;8.20;;;;;;;21.70;82.43;96523.53;5056407;28;20250;-71
2021/09/11 09:13:52;;;;;;;10.00;7.60;;;;;;;22.12;81.32;96520.31;5056809;28;20208;-71
2021/09/11 09:16:19;;;;;;;12.00;8.38;;;;;;;21.79;82.15;96516.75;5055373;28;20265;-72
2021/09/11 09:18:45;;;;;;;11.15;7.68;;;;;;;22.17;80.95;96520.41;5056313;28;20209;-72
2021/09/11 09:21:22;;;;;;;9.18;6.40;;;;;;;22.19;79.68;96519.13;5056505;28;20224;-71
2021/09/11 09:23:53;;;;;;;12.25;7.30;;;;;;;22.41;80.42;96516.59;5056390;28;20587;-72
2021/09/11 09:26:20;;;;;;;10.95;7.47;;;;;;;22.02;79.42;96522.84;5054941;28;21153;-71
2021/09/11 09:29:01;;;;;;;8.40;6.20;;;;;;;22.09;80.26;96523.50;5057381;28;20200;-72
2021/09/11 09:31:27;;;;;;;10.35;6.75;;;;;;;21.99;79.72;96522.50;5056388;28;20211;-71
2021/09/11 09:33:54;;;;;;;8.38;6.38;;;;;;;22.34;79.67;96521.28;5059356;28;20200;-72
2021/09/11 09:36:22;;;;;;;8.98;6.07;;;;;;;22.58;79.23;96518.22;5058215;28;20231;-72
2021/09/11 09:38:58;;;;;;;9.95;5.63;;;;;;;22.20;78.67;96525.31;5059998;28;20204;-71
2021/09/11 09:41:25;;;;;;;8.35;5.07;;;;;;;21.69;79.83;96522.75;5059632;28;20208;-72
2021/09/11 09:43:52;;;;;;;9.20;5.43;;;;;;;22.11;79.99;96516.03;5059720;28;20204;-72
2021/09/11 09:46:20;;;;;;;7.00;4.70;;;;;;;21.99;79.97;96511.78;5058724;28;20196;-72
2021/09/11 09:48:48;;;;;;;6.82;4.85;;;;;;;22.08;79.55;96517.34;5059281;28;20209;-72
2021/09/11 09:51:16;;;;;;;7.40;4.30;;;;;;;22.15;78.55;96512.63;5059273;28;20197;-72
2021/09/11 09:53:46;;;;;;;5.80;3.90;;;;;;;22.18;79.23;96514.81;5059277;28;20208;-72
2021/09/11 09:56:13;;;;;;;6.90;4.13;;;;;;;21.80;79.88;96515.69;5058864;28;20220;-72
2021/09/11 09:58:40;;;;;;;4.43;3.58;;;;;;;21.70;80.88;96523.53;5058942;28;20209;-71
2021/09/11 10:01:07;;;;;;;5.88;3.75;;;;;;;21.80;81.68;96521.06;5059530;28;20205;-72
2021/09/11 10:03:34;;;;;;;6.10;3.97;;;;;;;21.96;81.52;96515.75;5059071;28;20238;-72
2021/09/11 10:06:05;;;;;;;5.43;3.55;;;;;;;21.74;79.99;96520.16;5058434;28;20200;-71
2021/09/11 10:08:35;;;;;;;3.22;2.20;;;;;;;21.84;79.34;96523.06;5059392;28;20574;-72
2021/09/11 10:11:10;;;;;;;3.25;2.58;;;;;;;21.98;78.41;96520.88;5059531;28;20211;-71
2021/09/11 10:13:38;;;;;;;6.55;3.63;;;;;;;21.67;79.81;96518.69;5058926;28;20202;-71
2021/09/11 10:16:06;;;;;;;4.85;3.78;;;;;;;21.76;80.67;96515.34;5058640;28;20247;-71
2021/09/11 10:18:44;;;;;;;7.20;3.92;;;;;;;22.28;78.68;96516.91;5058694;28;20224;-72
2021/09/11 10:21:16;;;;;;;7.47;4.22;;;;;;;22.26;79.29;96514.47;5059014;28;20209;-71
2021/09/11 10:24:04;;;;;;;7.22;4.50;;;;;;;22.52;78.22;96513.03;5058483;28;20757;-71
2021/09/11 10:26:47;;;;;;;7.88;4.80;;;;;;;21.98;79.00;96512.81;5058156;28;20215;-71
2021/09/11 10:29:38;;;;;;;5.60;4.32;;;;;;;22.24;78.73;96510.34;5058528;28;21227;-71
2021/09/11 10:32:07;;;;;;;4.88;3.28;;;;;;;22.12;79.49;96514.97;5058975;28;20290;-71
2021/09/11 10:34:44;;;;;;;4.68;3.40;;;;;;;22.37;78.16;96512.75;5058283;28;20208;-72
2021/09/11 10:37:11;;;;;;;6.13;4.35;;;;;;;22.34;79.44;96507.84;5058059;28;20228;-72
2021/09/11 10:39:38;;;;;;;5.22;4.07;;;;;;;22.09;78.99;96510.88;5058235;28;20914;-72
2021/09/11 10:42:08;;;;;;;4.10;3.00;;;;;;;22.06;79.19;96513.25;5058803;28;20227;-71
2021/09/11 10:44:39;;;;;;;10.32;3.42;;;;;;;21.68;80.73;96506.91;5057624;28;20200;-71
2021/09/11 10:47:05;;;;;;;5.72;3.65;;;;;;;21.63;82.61;96512.16;5057214;28;20216;-71
2021/09/11 10:49:34;;;;;;;5.07;4.00;;;;;;;21.65;84.60;96507.34;5058773;28;20212;-71
2021/09/11 10:52:03;;;;;;;6.03;4.43;;;;;;;21.88;86.33;96513.47;5058488;28;20216;-71
2021/09/11 10:54:31;;;;;;;8.27;5.00;;;;;;;22.09;86.61;96504.72;5058503;28;20215;-71
2021/09/11 10:57:09;;;;;;;7.40;5.10;;;;;;;22.37;86.05;96496.66;5057493;28;20309;-71
2021/09/11 10:59:37;;;;;;;7.68;5.60;;;;;;;22.39;86.44;96491.81;5057790;28;20211;-72
2021/09/11 11:02:10;;;;;;;7.07;4.97;;;;;;;22.82;84.13;96492.78;5057864;28;20196;-72
2021/09/11 11:04:38;;;;;;;6.82;5.20;;;;;;;22.67;86.19;96494.44;5058199;28;20274;-71
2021/09/11 11:07:07;;;;;;;6.55;4.70;;;;;;;23.12;80.49;96487.91;5057463;28;20221;-71
2021/09/11 11:09:35;;;;;;;6.57;4.57;;;;;;;23.06;83.01;96481.59;5057826;28;20204;-71
2021/09/11 11:12:03;;;;;;;7.00;5.10;;;;;;;23.28;82.63;96481.63;5058014;28;20296;-71
2021/09/11 11:14:32;;;;;;;7.63;5.00;;;;;;;23.36;83.79;96480.13;5057482;28;20204;-72
2021/09/11 11:16:59;;;;;;;6.30;4.70;;;;;;;22.73;80.21;96484.34;5056520;28;20239;-71
2021/09/11 11:19:27;;;;;;;6.00;4.78;;;;;;;23.17;81.65;96472.63;5057705;28;20616;-71
2021/09/11 11:22:00;;;;;;;6.93;5.05;;;;;;;23.67;80.50;96468.66;5057579;28;20341;-72